Juan Jose Castelli, Argentina
Current Conditions -  °F | °C
As of 3:00 PM on Monday 20 Oct 2014 (Local Time) from SARE Reporting Station
Broken Clouds Broken Clouds  
Wind Chill: 86°   Ceiling: 20000
Heat Index: 87°   Visibility: 6mi
Dew Point: 63°   Wind: 9mph
Humidity: 45%   Direction: 110°ESE
Pressure: 30.03"   Gusts: NA
Location:  25.95°S, 60.62°W
Report Text: SARE 201800Z 11008KT 9999 SCT020 BKN200 30/17 Q1017
Loading
Personal Weather Stations






























Interactive Weather Map
Tropical Storm Tracking
New forecast layout! Learn more

10-Day Weather Forecast

Advertisements
Track Severe Weather on mobile